»·PEaware :: N21056 KSMX-KBFL

N21056 :: KSMX-KBFL

FLIGHT INFORMATION

Flight Status: Arrived
Operator: Privately registered:
United States
More flights under this callsign
Pilot: Erik K. (18332)
Aircraft: CESSNA 172 SKYHAWK
(C172)
More flights by this aircraft type
Origin: KSMX Santa Maria Pub/Capt Hancock
United States
Destination: KBFL Meadows
United States
More flights between these airports :: More routes between these airports
Route: +
File this flight plan on PilotEdge
Remarks: CAT5
Altitude:
(Current/Filed)
0ft
Speed:
(Current/Filed)
0kts
Departed: 03-Mar-18 10:08 AM
Arrived: 03-Mar-18 10:48 AM
Distance/Time
Traveled:
76nm/0:39
Distance/Time
To Go:
Arrived

Flight Plot

Page will automatically refresh every two minutes.


Map Options




Map Legend


Flown Route
Filed Route
Departure Airport
Arrival Airport
Navaid (VOR, NDB)
Fix

Horizontal Profiles

Position Reports

Time Latitude Longitude Heading Altitude Ground
Speed
03-Mar-18 10:14 34.946131 -120.316030 77 2324ft 110kts
03-Mar-18 10:15 34.952008 -120.279505 75 2518ft 106kts
03-Mar-18 10:16 34.962771 -120.245915 59 2757ft 106kts
03-Mar-18 10:17 34.986160 -120.224820 20 2897ft 109kts
03-Mar-18 10:18 35.012439 -120.203995 39 2954ft 107kts
03-Mar-18 10:19 35.033101 -120.176373 68 2971ft 115kts
03-Mar-18 10:20 35.048669 -120.141628 48 2993ft 105kts
03-Mar-18 10:21 35.066801 -120.113090 52 3169ft 108kts
03-Mar-18 10:22 35.079469 -120.081499 87 3485ft 103kts
03-Mar-18 10:23 35.078911 -120.045948 71 3731ft 106kts
03-Mar-18 10:24 35.092361 -120.005416 65 2991ft 125kts
03-Mar-18 10:25 35.103588 -119.972795 67 3688ft 107kts
03-Mar-18 10:26 35.113514 -119.938066 61 4259ft 109kts
03-Mar-18 10:27 35.126171 -119.904000 71 4789ft 113kts
03-Mar-18 10:28 35.140628 -119.870499 49 5292ft 110kts
03-Mar-18 10:29 35.155147 -119.836038 64 5731ft 116kts
03-Mar-18 10:30 35.166922 -119.799092 55 6150ft 117kts
03-Mar-18 10:31 35.188364 -119.769764 38 6545ft 116kts
03-Mar-18 10:32 35.206251 -119.736081 65 6896ft 123kts
03-Mar-18 10:33 35.216621 -119.695724 68 7231ft 126kts
03-Mar-18 10:34 35.229004 -119.655488 59 7544ft 127kts
03-Mar-18 10:35 35.248938 -119.620385 38 7834ft 125kts
03-Mar-18 10:36 35.269244 -119.584303 47 8104ft 128kts
03-Mar-18 10:37 35.286589 -119.544318 65 8376ft 123kts
03-Mar-18 10:38 35.297125 -119.500533 77 8398ft 139kts
03-Mar-18 10:39 35.311424 -119.458048 51 7773ft 123kts
03-Mar-18 10:40 35.334382 -119.424028 56 7082ft 135kts
03-Mar-18 10:41 35.342556 -119.380237 79 5901ft 132kts
03-Mar-18 10:42 35.343034 -119.337843 89 4591ft 123kts
03-Mar-18 10:43 35.343382 -119.300347 83 4641ft 103kts
03-Mar-18 10:44 35.346969 -119.264657 67 4958ft 104kts
03-Mar-18 10:45 35.352091 -119.226225 79 5047ft 118kts
03-Mar-18 10:46 35.355439 -119.185764 82 5100ft 124kts
03-Mar-18 10:47 35.356620 -119.144483 91 5048ft 121kts
03-Mar-18 10:48 35.353140 -119.104219 100 4668ft 120kts
03-Mar-18 10:49 35.349141 -119.064332 96 4325ft 117kts
03-Mar-18 10:50 35.355893 -119.028226 46 3786ft 107kts
03-Mar-18 10:51 35.374362 -118.999483 51 2744ft 111kts
03-Mar-18 10:52 35.396148 -119.007997 311 1689ft 99kts
03-Mar-18 10:53 35.413032 -119.031444 317 1010ft 76kts
03-Mar-18 10:54 35.426739 -119.047624 316 671ft 63kts
03-Mar-18 10:55 35.436363 -119.057900 64 492ft 18kts
03-Mar-18 10:56 35.436423 -119.057391 92 494ft 0kts
03-Mar-18 10:57 35.436423 -119.057391 92 494ft 0kts
03-Mar-18 10:58 35.434490 -119.054618 145 492ft 18kts
03-Mar-18 10:59 35.432261 -119.052090 152 493ft 5kts
03-Mar-18 11:00 35.430645 -119.049517 67 493ft 11kts
03-Mar-18 11:01 35.431267 -119.049372 314 496ft 0kts
03-Mar-18 11:02 35.431267 -119.049372 314 496ft 0kts
03-Mar-18 11:03 35.431267 -119.049372 314 496ft 0kts
03-Mar-18 11:04 35.431267 -119.049372 314 496ft 0kts
03-Mar-18 11:05 35.431267 -119.049372 314 496ft 0kts
03-Mar-18 11:06 35.431267 -119.049372 314 496ft 0kts

Navigation Log

Ident Type
Flight plan parsing failed, navigation log unavailable